createdAt,value
2019-01-14T00:00:29.011Z,8.80
2019-01-14T00:03:01.836Z,8.80
2019-01-14T00:05:32.659Z,8.80
2019-01-14T00:08:03.541Z,8.90
2019-01-14T00:10:33.175Z,8.80
2019-01-14T00:13:04.394Z,8.70
2019-01-14T00:15:38.710Z,8.70
2019-01-14T00:18:08.510Z,8.80
2019-01-14T00:20:48.028Z,8.80
2019-01-14T00:23:17.538Z,8.90
2019-01-14T00:25:51.442Z,8.90
2019-01-14T00:28:21.996Z,9.00
2019-01-14T00:30:53.328Z,9.00
2019-01-14T00:33:23.837Z,9.10
2019-01-14T00:35:59.088Z,9.00
2019-01-14T00:38:38.221Z,9.00
2019-01-14T00:41:08.477Z,8.90
2019-01-14T00:43:38.019Z,8.90
2019-01-14T00:46:10.102Z,8.90
2019-01-14T00:48:44.225Z,8.90
2019-01-14T00:51:14.346Z,9.00
2019-01-14T00:53:44.011Z,9.00
2019-01-14T00:56:18.371Z,8.90
2019-01-14T00:58:49.133Z,9.00
2019-01-14T01:01:18.745Z,9.00
2019-01-14T01:03:49.135Z,9.10
2019-01-14T01:06:24.581Z,9.10
2019-01-14T01:08:51.394Z,9.00
2019-01-14T01:11:21.352Z,9.00
2019-01-14T01:13:50.914Z,8.90
2019-01-14T01:16:20.453Z,8.90
2019-01-14T01:18:50.516Z,8.80
2019-01-14T01:21:20.077Z,8.80
2019-01-14T01:23:49.587Z,8.60
2019-01-14T01:26:19.987Z,8.70
2019-01-14T01:28:50.269Z,8.70
2019-01-14T01:31:20.085Z,8.70
2019-01-14T01:33:50.977Z,8.70
2019-01-14T01:36:20.476Z,8.70
2019-01-14T01:38:50.001Z,8.70
2019-01-14T01:41:19.613Z,8.70
2019-01-14T01:43:51.423Z,8.80
2019-01-14T01:46:21.800Z,8.80
2019-01-14T01:48:52.539Z,8.80
2019-01-14T01:51:22.659Z,8.80
2019-01-14T01:53:53.641Z,8.80
2019-01-14T01:56:23.169Z,8.80
2019-01-14T01:58:53.816Z,8.90
2019-01-14T02:01:25.405Z,8.80
2019-01-14T02:03:54.944Z,8.80
2019-01-14T02:06:26.195Z,8.80
2019-01-14T02:08:57.312Z,8.70
2019-01-14T02:11:29.352Z,8.60
2019-01-14T02:14:02.554Z,8.60
2019-01-14T02:16:34.858Z,8.50
2019-01-14T02:19:05.744Z,8.50
2019-01-14T02:21:35.471Z,8.50
2019-01-14T02:24:09.871Z,8.50
2019-01-14T02:26:40.331Z,8.60
2019-01-14T02:29:09.846Z,8.60
2019-01-14T02:31:39.340Z,8.60
2019-01-14T02:34:11.285Z,8.70
2019-01-14T02:36:48.324Z,8.70
2019-01-14T02:39:27.866Z,8.70
2019-01-14T02:42:14.852Z,8.70
2019-01-14T02:44:56.161Z,8.70
2019-01-14T02:47:26.225Z,8.60
2019-01-14T02:49:55.924Z,8.50
2019-01-14T02:52:26.663Z,8.30
2019-01-14T02:54:57.466Z,8.30
2019-01-14T02:57:27.923Z,8.30
2019-01-14T03:00:00.660Z,8.20
2019-01-14T03:02:30.680Z,8.20
2019-01-14T03:05:01.130Z,8.10
2019-01-14T03:10:00.789Z,8.10
2019-01-14T03:12:30.957Z,8.10
2019-01-14T03:15:01.461Z,8.10
2019-01-14T03:17:31.113Z,8.00
2019-01-14T03:20:03.108Z,8.00
2019-01-14T03:22:33.993Z,8.00
2019-01-14T03:25:07.186Z,7.90
2019-01-14T03:27:37.745Z,7.90
2019-01-14T03:30:10.846Z,7.90
2019-01-14T03:32:47.094Z,7.90
2019-01-14T03:35:17.096Z,7.80
2019-01-14T03:37:46.579Z,7.70
2019-01-14T03:40:18.562Z,7.70
2019-01-14T03:42:49.504Z,7.60
2019-01-14T03:45:20.650Z,7.60
2019-01-14T03:47:51.622Z,7.60
2019-01-14T03:50:25.293Z,7.60
2019-01-14T03:52:55.570Z,7.70
2019-01-14T03:55:25.668Z,7.70
2019-01-14T03:57:55.553Z,7.60
2019-01-14T04:00:25.515Z,7.60
2019-01-14T04:02:55.960Z,7.60
2019-01-14T04:05:25.582Z,7.50
2019-01-14T04:07:55.534Z,7.40
2019-01-14T04:10:25.410Z,7.40
2019-01-14T04:12:56.016Z,7.40
2019-01-14T04:15:25.625Z,7.40
2019-01-14T04:17:55.243Z,7.30
2019-01-14T04:20:25.533Z,7.30
2019-01-14T04:22:55.515Z,7.30
2019-01-14T04:25:25.455Z,7.40
2019-01-14T04:27:57.147Z,7.40
2019-01-14T04:30:27.239Z,7.50
2019-01-14T04:32:58.065Z,7.50
2019-01-14T04:35:27.746Z,7.40
2019-01-14T04:37:59.269Z,7.40
2019-01-14T04:40:34.510Z,7.30
2019-01-14T04:43:06.844Z,7.20
2019-01-14T04:45:39.448Z,7.20
2019-01-14T04:48:13.841Z,7.20
2019-01-14T04:50:43.627Z,7.30
2019-01-14T04:53:19.702Z,7.30
2019-01-14T04:55:50.093Z,7.30
2019-01-14T04:58:21.281Z,7.30
2019-01-14T05:00:52.430Z,7.20
2019-01-14T05:03:23.074Z,7.20
2019-01-14T05:05:52.762Z,7.30
2019-01-14T05:08:24.885Z,7.30
2019-01-14T05:10:54.684Z,7.30
2019-01-14T05:13:25.351Z,7.40
2019-01-14T05:15:55.350Z,7.30
2019-01-14T05:18:28.025Z,7.30
2019-01-14T05:20:58.521Z,7.30
2019-01-14T05:23:28.904Z,7.30
2019-01-14T05:25:59.953Z,7.30
2019-01-14T05:28:31.517Z,7.30
2019-01-14T05:31:02.794Z,7.30
2019-01-14T05:33:33.768Z,7.30
2019-01-14T05:36:03.328Z,7.20
2019-01-14T05:38:36.224Z,7.30
2019-01-14T05:41:06.717Z,7.30
2019-01-14T05:43:36.806Z,7.30
2019-01-14T05:46:08.273Z,7.30
2019-01-14T05:48:37.692Z,7.30
2019-01-14T05:51:07.945Z,7.30
2019-01-14T05:53:38.363Z,7.20
2019-01-14T05:56:12.002Z,7.20
2019-01-14T05:58:48.083Z,7.20
2019-01-14T06:01:19.896Z,7.10
2019-01-14T06:03:50.186Z,7.10
2019-01-14T06:06:19.887Z,7.00
2019-01-14T06:08:52.321Z,6.90
2019-01-14T06:11:21.856Z,6.90
2019-01-14T06:13:51.382Z,6.90
2019-01-14T06:16:20.957Z,7.00
2019-01-14T06:18:51.394Z,7.00
2019-01-14T06:21:20.901Z,7.00
2019-01-14T06:23:50.962Z,7.00
2019-01-14T06:26:21.824Z,7.00
2019-01-14T06:28:52.935Z,7.10
2019-01-14T06:31:23.382Z,7.10
2019-01-14T06:33:54.116Z,7.20
2019-01-14T06:36:25.526Z,7.10
2019-01-14T06:38:55.469Z,7.10
2019-01-14T06:41:26.700Z,7.00
2019-01-14T06:44:35.431Z,7.00
2019-01-14T06:48:04.351Z,6.90
2019-01-14T06:50:34.332Z,6.80
2019-01-14T06:53:04.522Z,6.80
2019-01-14T06:55:34.424Z,6.80
2019-01-14T06:58:04.939Z,6.80
2019-01-14T07:00:36.504Z,6.80
2019-01-14T07:03:09.867Z,6.80
2019-01-14T07:05:42.320Z,6.80
2019-01-14T07:08:13.156Z,6.70
2019-01-14T07:10:44.264Z,6.70
2019-01-14T07:13:16.567Z,6.70
2019-01-14T07:15:46.411Z,6.70
2019-01-14T07:18:16.010Z,6.70
2019-01-14T07:20:48.666Z,6.60
2019-01-14T07:23:19.312Z,6.60
2019-01-14T07:25:48.953Z,6.60
2019-01-14T07:28:19.555Z,6.70
2019-01-14T07:30:50.192Z,6.60
2019-01-14T07:33:22.275Z,6.60
2019-01-14T07:35:54.968Z,6.60
2019-01-14T07:38:30.080Z,6.60
2019-01-14T07:40:59.747Z,6.50
2019-01-14T07:43:32.941Z,6.50
2019-01-14T07:46:02.552Z,6.50
2019-01-14T07:48:32.927Z,6.50
2019-01-14T07:51:03.547Z,6.40
2019-01-14T07:53:35.199Z,6.40
2019-01-14T07:56:15.332Z,6.40
2019-01-14T07:58:45.471Z,6.40
2019-01-14T08:01:17.059Z,6.30
2019-01-14T08:03:49.008Z,6.30
2019-01-14T08:06:21.295Z,6.30
2019-01-14T08:08:56.027Z,6.40
2019-01-14T08:11:28.123Z,6.40
2019-01-14T08:13:59.929Z,6.40
2019-01-14T08:16:36.385Z,6.40
2019-01-14T08:19:06.833Z,6.40
2019-01-14T08:21:37.642Z,6.40
2019-01-14T08:24:15.570Z,6.50
2019-01-14T08:26:51.717Z,6.50
2019-01-14T08:29:21.670Z,6.50
2019-01-14T08:31:53.654Z,6.60
2019-01-14T08:34:24.117Z,6.60
2019-01-14T08:37:00.731Z,6.60
2019-01-14T08:39:26.610Z,6.70
2019-01-14T08:42:03.012Z,6.70
2019-01-14T08:44:39.837Z,6.70
2019-01-14T08:47:09.534Z,6.80
2019-01-14T08:49:41.354Z,6.90
2019-01-14T08:52:17.060Z,6.90
2019-01-14T08:54:53.276Z,7.00
2019-01-14T08:57:30.657Z,7.00
2019-01-14T09:00:00.927Z,7.00
2019-01-14T09:02:34.514Z,6.90
2019-01-14T09:05:08.949Z,7.00
2019-01-14T09:07:41.733Z,7.00
2019-01-14T09:10:18.592Z,7.00
2019-01-14T09:12:49.158Z,7.00
2019-01-14T09:15:21.222Z,7.10
2019-01-14T09:17:51.548Z,7.10
2019-01-14T09:20:23.569Z,7.20
2019-01-14T09:22:53.984Z,7.20
2019-01-14T09:25:26.942Z,7.20
2019-01-14T09:27:57.374Z,7.20
2019-01-14T09:30:27.337Z,7.10
2019-01-14T09:32:57.001Z,7.10
2019-01-14T09:35:27.962Z,7.10
2019-01-14T09:37:58.397Z,7.00
2019-01-14T09:40:28.012Z,6.90
2019-01-14T09:42:58.494Z,6.90
2019-01-14T09:45:28.103Z,7.00
2019-01-14T09:48:01.724Z,6.90
2019-01-14T09:50:32.472Z,6.90
2019-01-14T09:53:03.996Z,7.00
2019-01-14T09:55:33.702Z,6.90
2019-01-14T09:58:03.263Z,6.90
2019-01-14T10:00:32.861Z,6.90
2019-01-14T10:03:03.004Z,7.00
2019-01-14T10:05:32.537Z,7.00
2019-01-14T10:08:02.235Z,6.90
2019-01-14T10:10:32.666Z,7.00
2019-01-14T10:13:02.807Z,7.00
2019-01-14T10:15:34.139Z,7.00
2019-01-14T10:18:05.422Z,6.90
2019-01-14T10:20:35.904Z,7.00
2019-01-14T10:23:05.532Z,7.10
2019-01-14T10:25:36.275Z,7.10
2019-01-14T10:28:12.276Z,7.10
2019-01-14T10:30:42.350Z,7.20
2019-01-14T10:33:13.124Z,7.00
2019-01-14T10:35:43.724Z,7.00
2019-01-14T10:38:14.068Z,7.00
2019-01-14T10:40:43.624Z,7.10
2019-01-14T10:43:13.480Z,7.10
2019-01-14T10:45:43.733Z,7.10
2019-01-14T10:48:14.808Z,7.00
2019-01-14T10:50:45.468Z,7.00
2019-01-14T10:53:18.209Z,7.00
2019-01-14T10:56:01.674Z,7.00
2019-01-14T10:58:31.259Z,7.00
2019-01-14T11:01:10.617Z,6.90
2019-01-14T11:03:49.678Z,6.80
2019-01-14T11:06:30.681Z,6.80
2019-01-14T11:09:19.448Z,6.80
2019-01-14T11:11:51.525Z,6.80
2019-01-14T11:14:21.863Z,6.80
2019-01-14T11:16:55.006Z,6.80
2019-01-14T11:19:27.774Z,6.90
2019-01-14T11:21:58.853Z,6.90
2019-01-14T11:24:50.928Z,7.00
2019-01-14T11:27:22.437Z,7.00
2019-01-14T11:29:53.708Z,7.00
2019-01-14T11:32:33.306Z,7.00
2019-01-14T11:35:04.822Z,7.00
2019-01-14T11:37:37.011Z,7.00
2019-01-14T11:40:12.125Z,7.00
2019-01-14T11:42:43.019Z,7.00
2019-01-14T11:45:14.535Z,7.00
2019-01-14T11:47:44.637Z,7.00
2019-01-14T11:50:20.190Z,7.10
2019-01-14T11:52:51.704Z,7.10
2019-01-14T11:55:21.883Z,7.10
2019-01-14T11:57:52.887Z,7.20
2019-01-14T12:00:26.976Z,7.20
2019-01-14T12:02:57.732Z,7.30
2019-01-14T12:05:29.040Z,7.20
2019-01-14T12:07:59.063Z,7.20
2019-01-14T12:10:31.786Z,7.30
2019-01-14T12:13:03.083Z,7.30
2019-01-14T12:15:33.547Z,7.30
2019-01-14T12:18:03.695Z,7.40
2019-01-14T12:20:38.080Z,7.40
2019-01-14T12:23:08.187Z,7.40
2019-01-14T12:25:38.435Z,7.50
2019-01-14T12:28:08.279Z,7.50
2019-01-14T12:30:41.756Z,7.50
2019-01-14T12:33:12.906Z,7.50
2019-01-14T12:35:47.116Z,7.40
2019-01-14T12:38:22.219Z,7.40
2019-01-14T12:40:54.024Z,7.40
2019-01-14T12:43:30.387Z,7.40
2019-01-14T12:46:01.399Z,7.40
2019-01-14T12:48:32.177Z,7.40
2019-01-14T12:51:02.860Z,7.30
2019-01-14T12:53:32.650Z,7.20
2019-01-14T12:56:03.175Z,7.30
2019-01-14T12:58:35.937Z,7.30
2019-01-14T13:01:07.199Z,7.40
2019-01-14T13:03:37.731Z,7.40
2019-01-14T13:06:12.092Z,7.40
2019-01-14T13:08:44.832Z,7.40
2019-01-14T13:11:15.048Z,7.30
2019-01-14T13:13:50.887Z,7.30
2019-01-14T13:16:23.070Z,7.30
2019-01-14T13:19:08.436Z,7.30
2019-01-14T13:21:41.494Z,7.30
2019-01-14T13:24:11.220Z,7.30
2019-01-14T13:26:41.402Z,7.30
2019-01-14T13:29:15.289Z,7.30
2019-01-14T13:31:53.393Z,7.40
2019-01-14T13:34:27.483Z,7.50
2019-01-14T13:36:58.349Z,7.50
2019-01-14T13:39:33.936Z,7.50
2019-01-14T13:42:00.391Z,7.60
2019-01-14T13:44:30.743Z,7.60
2019-01-14T13:47:01.114Z,7.60
2019-01-14T13:49:30.735Z,7.70
2019-01-14T13:52:02.880Z,7.70
2019-01-14T13:54:45.076Z,7.70
2019-01-14T13:57:15.419Z,7.60
2019-01-14T13:59:46.973Z,7.50
2019-01-14T14:02:18.092Z,7.50
2019-01-14T14:05:03.213Z,7.50
2019-01-14T14:07:36.232Z,7.50
2019-01-14T14:10:13.717Z,7.60
2019-01-14T14:12:45.645Z,7.60
2019-01-14T14:15:18.311Z,7.60
2019-01-14T14:18:04.126Z,7.60
2019-01-14T14:20:41.131Z,7.50
2019-01-14T14:23:16.368Z,7.60
2019-01-14T14:25:48.388Z,7.60
2019-01-14T14:28:21.027Z,7.70
2019-01-14T14:31:10.473Z,7.70
2019-01-14T14:34:04.741Z,7.60
2019-01-14T14:36:35.524Z,7.60
2019-01-14T14:39:10.365Z,7.50
2019-01-14T14:41:40.781Z,7.50
2019-01-14T14:44:11.702Z,7.40
2019-01-14T14:46:42.783Z,7.50
2019-01-14T14:49:14.893Z,7.50
2019-01-14T14:51:47.626Z,7.50
2019-01-14T14:54:19.268Z,7.40
2019-01-14T14:56:49.133Z,7.50
2019-01-14T14:59:19.106Z,7.50
2019-01-14T15:01:58.345Z,7.50
2019-01-14T15:04:33.223Z,7.50
2019-01-14T15:07:05.072Z,7.50
2019-01-14T15:09:39.343Z,7.60
2019-01-14T15:12:16.869Z,7.60
2019-01-14T15:14:49.502Z,7.50
2019-01-14T15:17:20.985Z,7.40
2019-01-14T15:20:12.055Z,7.40
2019-01-14T15:22:45.334Z,7.30
2019-01-14T15:25:16.782Z,7.30
2019-01-14T15:27:50.964Z,7.20
2019-01-14T15:30:28.905Z,7.20
2019-01-14T15:33:02.464Z,7.20
2019-01-14T15:35:36.819Z,7.20
2019-01-14T15:38:06.092Z,7.10
2019-01-14T15:40:39.308Z,6.90
2019-01-14T15:43:15.102Z,6.80
2019-01-14T15:45:47.046Z,6.80
2019-01-14T15:48:17.753Z,6.70
2019-01-14T15:50:48.767Z,6.80
2019-01-14T15:53:18.958Z,6.70
2019-01-14T15:55:49.582Z,6.70
2019-01-14T15:58:23.583Z,6.70
2019-01-14T16:01:00.105Z,6.60
2019-01-14T16:03:31.636Z,6.50
2019-01-14T16:06:04.762Z,6.50
2019-01-14T16:08:54.413Z,6.50
2019-01-14T16:11:25.669Z,6.50
2019-01-14T16:13:58.899Z,6.50
2019-01-14T16:16:30.078Z,6.60
2019-01-14T16:19:01.053Z,6.70
2019-01-14T16:21:33.937Z,6.80
2019-01-14T16:24:04.539Z,6.90
2019-01-14T16:26:39.965Z,6.80
2019-01-14T16:29:10.823Z,6.70
2019-01-14T16:31:41.081Z,6.70
2019-01-14T16:34:13.122Z,6.70
2019-01-14T16:36:47.038Z,6.70
2019-01-14T16:39:23.149Z,6.80
2019-01-14T16:41:56.190Z,6.80
2019-01-14T16:44:36.772Z,6.80
2019-01-14T16:47:15.629Z,6.70
2019-01-14T16:49:46.168Z,6.60
2019-01-14T16:52:41.225Z,6.60
2019-01-14T16:55:40.175Z,6.60
2019-01-14T16:58:14.951Z,6.60
2019-01-14T17:00:46.473Z,6.60
2019-01-14T17:03:20.093Z,6.60
2019-01-14T17:05:55.775Z,6.60
2019-01-14T17:08:29.771Z,6.50
2019-01-14T17:11:01.582Z,6.40
2019-01-14T17:13:50.515Z,6.40
2019-01-14T17:16:20.559Z,6.40
2019-01-14T17:18:59.334Z,6.40
2019-01-14T17:21:34.524Z,6.30
2019-01-14T17:24:06.205Z,6.40
2019-01-14T17:26:48.540Z,6.40
2019-01-14T17:29:24.000Z,6.30
2019-01-14T17:31:59.228Z,6.40
2019-01-14T17:34:39.749Z,6.40
2019-01-14T17:37:10.513Z,6.40
2019-01-14T17:39:40.741Z,6.40
2019-01-14T17:42:18.116Z,6.40
2019-01-14T17:44:48.371Z,6.40
2019-01-14T17:47:21.466Z,6.40
2019-01-14T17:49:51.518Z,6.50
2019-01-14T17:52:22.552Z,6.50
2019-01-14T17:54:52.202Z,6.50
2019-01-14T17:57:27.929Z,6.50
2019-01-14T17:59:58.817Z,6.50
2019-01-14T18:02:31.604Z,6.40
2019-01-14T18:05:06.280Z,6.50
2019-01-14T18:07:37.628Z,6.50
2019-01-14T18:10:08.535Z,6.50
2019-01-14T18:12:42.791Z,6.60
2019-01-14T18:15:14.809Z,6.60
2019-01-14T18:17:45.937Z,6.60
2019-01-14T18:20:18.062Z,6.60
2019-01-14T18:22:48.064Z,6.60
2019-01-14T18:25:20.035Z,6.60
2019-01-14T18:27:53.046Z,6.60
2019-01-14T18:30:24.401Z,6.60
2019-01-14T18:32:53.954Z,6.60
2019-01-14T18:35:25.675Z,6.60
2019-01-14T18:38:03.822Z,6.60
2019-01-14T18:40:35.667Z,6.70
2019-01-14T18:43:06.780Z,6.60
2019-01-14T18:45:36.594Z,6.60
2019-01-14T18:48:07.907Z,6.60
2019-01-14T18:50:38.432Z,6.60
2019-01-14T18:53:09.181Z,6.70
2019-01-14T18:55:39.305Z,6.70
2019-01-14T18:58:13.104Z,6.80
2019-01-14T19:00:44.125Z,6.80
2019-01-14T19:03:14.556Z,6.80
2019-01-14T19:05:45.411Z,6.70
2019-01-14T19:08:15.418Z,6.70
2019-01-14T19:10:46.310Z,6.60
2019-01-14T19:13:18.495Z,6.50
2019-01-14T19:15:50.808Z,6.40
2019-01-14T19:18:21.039Z,6.30
2019-01-14T19:20:51.845Z,6.20
2019-01-14T19:23:21.949Z,6.10
2019-01-14T19:25:54.022Z,6.00
2019-01-14T19:28:25.726Z,6.00
2019-01-14T19:30:57.172Z,6.00
2019-01-14T19:33:28.571Z,6.00
2019-01-14T19:35:58.884Z,6.00
2019-01-14T19:38:29.076Z,5.90
2019-01-14T19:41:02.066Z,5.90
2019-01-14T19:43:33.095Z,5.90
2019-01-14T19:46:03.198Z,5.90
2019-01-14T19:48:36.815Z,5.80
2019-01-14T19:51:08.538Z,5.80
2019-01-14T19:53:45.960Z,5.70
2019-01-14T19:56:17.071Z,5.60
2019-01-14T19:59:07.080Z,5.50
2019-01-14T20:01:39.162Z,5.50
2019-01-14T20:04:10.436Z,5.40
2019-01-14T20:06:45.835Z,5.40
2019-01-14T20:09:18.572Z,5.40
2019-01-14T20:11:51.337Z,5.40
2019-01-14T20:14:21.667Z,5.40
2019-01-14T20:16:55.374Z,5.30
2019-01-14T20:19:35.269Z,5.20
2019-01-14T20:22:09.914Z,5.10
2019-01-14T20:24:40.912Z,5.00
2019-01-14T20:27:13.773Z,5.00
2019-01-14T20:29:44.185Z,5.00
2019-01-14T20:32:14.852Z,5.00
2019-01-14T20:34:45.903Z,5.00
2019-01-14T20:37:17.778Z,4.90
2019-01-14T20:39:48.870Z,4.80
2019-01-14T20:42:26.891Z,4.80
2019-01-14T20:44:59.747Z,4.80
2019-01-14T20:47:30.141Z,4.90
2019-01-14T20:50:00.772Z,5.00
2019-01-14T20:52:33.055Z,5.00
2019-01-14T20:55:05.427Z,4.90
2019-01-14T20:57:35.772Z,4.80
2019-01-14T21:00:12.553Z,4.70
2019-01-14T21:02:45.717Z,4.60
2019-01-14T21:05:19.534Z,4.50
2019-01-14T21:07:52.114Z,4.50
2019-01-14T21:10:22.132Z,4.40
2019-01-14T21:12:55.048Z,4.30
2019-01-14T21:15:39.692Z,4.20
2019-01-14T21:18:10.335Z,4.00
2019-01-14T21:20:42.174Z,3.90
2019-01-14T21:23:11.757Z,3.90
2019-01-14T21:25:42.194Z,3.80
2019-01-14T21:28:11.782Z,3.70
2019-01-14T21:30:44.314Z,3.70
2019-01-14T21:33:16.212Z,3.70
2019-01-14T21:35:48.045Z,3.60
2019-01-14T21:38:18.409Z,3.60
2019-01-14T21:40:48.636Z,3.50
2019-01-14T21:43:18.266Z,3.50
2019-01-14T21:45:49.534Z,3.50
2019-01-14T21:48:19.973Z,3.40
2019-01-14T21:50:50.428Z,3.40
2019-01-14T21:53:20.887Z,3.40
2019-01-14T21:55:53.277Z,3.30
2019-01-14T21:58:23.390Z,3.30
2019-01-14T22:00:54.675Z,3.30
2019-01-14T22:03:27.450Z,3.20
2019-01-14T22:05:59.649Z,3.10
2019-01-14T22:08:35.642Z,3.10
2019-01-14T22:11:05.971Z,3.10
2019-01-14T22:13:38.550Z,3.10
2019-01-14T22:16:09.879Z,3.10
2019-01-14T22:18:41.572Z,3.10
2019-01-14T22:21:13.801Z,3.00
2019-01-14T22:23:48.021Z,3.00
2019-01-14T22:26:29.245Z,3.00
2019-01-14T22:29:00.217Z,3.00
2019-01-14T22:31:32.386Z,3.00
2019-01-14T22:34:02.364Z,2.90
2019-01-14T22:36:35.010Z,3.00
2019-01-14T22:39:07.543Z,3.10
2019-01-14T22:41:45.512Z,3.20
2019-01-14T22:44:11.620Z,3.30
2019-01-14T22:46:42.942Z,3.40
2019-01-14T22:49:19.095Z,3.40
2019-01-14T22:52:00.446Z,3.50
2019-01-14T22:54:31.381Z,3.40
2019-01-14T22:57:03.003Z,3.40
2019-01-14T22:59:34.794Z,3.40
2019-01-14T23:02:05.373Z,3.30
2019-01-14T23:04:36.115Z,3.30
2019-01-14T23:07:06.667Z,3.20
2019-01-14T23:09:38.356Z,3.10
2019-01-14T23:12:11.507Z,3.10
2019-01-14T23:14:42.001Z,3.00
2019-01-14T23:17:13.150Z,3.00
2019-01-14T23:19:45.379Z,2.90
2019-01-14T23:22:16.074Z,2.80
2019-01-14T23:24:47.180Z,2.80
2019-01-14T23:27:17.933Z,2.70
2019-01-14T23:29:51.008Z,2.70
2019-01-14T23:32:21.821Z,2.70
2019-01-14T23:34:51.412Z,2.70
2019-01-14T23:37:23.447Z,2.70
2019-01-14T23:39:53.971Z,2.70
2019-01-14T23:42:24.505Z,2.70
2019-01-14T23:44:55.435Z,2.70
2019-01-14T23:47:30.592Z,2.70
2019-01-14T23:50:03.768Z,2.70
2019-01-14T23:52:35.804Z,2.70
2019-01-14T23:55:06.265Z,2.70
2019-01-14T23:57:38.117Z,2.70
